• Join FlightAware (Why Join?)
  • Login
  • US Flag 
07:25AM EDT


 

Airport Tracker/Info


-or-


 

Live Flight TrackerFlight Track Log ✈ GPD312B ✈ 10-Mar-2014 ✈ TFFJ / SBH - TIST / STT

Flight Track Log - Related Links

Times and Time Zones

All times are in EDT time to prevent confusion due to time zone crossing. See the GPD312B flight status page for this flight to view local times or setup timezone preferences in your user account.

Time Position Orientation Groundspeed Altitude Reporting Facility
EDT Latitude Longitude Course Direction KTS MPH feet Rate Location/Type
01:13PM 17.9167 -63.5833 288° West 250 288 14,400  Level San Juan Center
01:15PM 17.9392 -63.6569 281° West  Level Estimated
01:22PM 18.0376 -63.9788 282° West  Level Estimated
01:23PM 18.0655 -64.0172 307° West  Level FlightAware Approximate
01:24PM 18.0934 -64.0555 307° West  Level FlightAware Approximate
01:25PM 18.1213 -64.0939 307° West  Level FlightAware Approximate
01:26PM 18.1329 -64.1407 270° West  Level Estimated
01:27PM 18.1445 -64.1875 288° West  Level Estimated
01:28PM 18.1635 -64.2315 294° West  Level FlightAware Approximate
01:29PM 18.1824 -64.2756 294° West  Level FlightAware Approximate
01:30PM 18.1929 -64.3227 279° West  Level Estimated
01:31PM 18.2020 -64.3701 281° West  Level FlightAware Approximate
01:32PM 18.2111 -64.4175 281° West  Level FlightAware Approximate
01:33PM 18.2202 -64.4649 281° West  Level FlightAware Approximate
01:34PM 18.2293 -64.5123 281° West  Level FlightAware Approximate
01:35PM 18.2404 -64.5593 283° West  Level Estimated
01:36PM 18.2504 -64.6065 283° West  Level FlightAware Approximate
01:37PM 18.2604 -64.6537 283° West  Level FlightAware Approximate
01:38PM 18.2717 -64.7006 298° West  Level Estimated
01:39PM 18.2830 -64.7475 282° West  Level Estimated
01:40PM 18.2943 -64.7944 282° West  Level Estimated
01:41PM 18.3061 -64.8411 285° West  Level FlightAware Approximate